sensor_id;sensor_type;location;lat;lon;timestamp;P1;durP1;ratioP1;P2;durP2;ratioP2
37517;SDS011;23366;52.498;13.446;2024-03-02T00:02:13;49.15;;;21.73;;
37517;SDS011;23366;52.498;13.446;2024-03-02T00:04:39;40.63;;;21.08;;
37517;SDS011;23366;52.498;13.446;2024-03-02T00:07:06;41.75;;;21.48;;
37517;SDS011;23366;52.498;13.446;2024-03-02T00:09:32;44.58;;;23.02;;
37517;SDS011;23366;52.498;13.446;2024-03-02T00:12:01;47.35;;;20.92;;
37517;SDS011;23366;52.498;13.446;2024-03-02T00:14:31;47.80;;;21.13;;
37517;SDS011;23366;52.498;13.446;2024-03-02T00:16:57;36.05;;;20.27;;
37517;SDS011;23366;52.498;13.446;2024-03-02T00:19:23;46.28;;;21.10;;
37517;SDS011;23366;52.498;13.446;2024-03-02T00:21:49;33.47;;;19.60;;
37517;SDS011;23366;52.498;13.446;2024-03-02T00:24:18;41.17;;;19.88;;
37517;SDS011;23366;52.498;13.446;2024-03-02T00:26:46;48.00;;;22.73;;
37517;SDS011;23366;52.498;13.446;2024-03-02T00:29:12;48.08;;;22.85;;
37517;SDS011;23366;52.498;13.446;2024-03-02T00:31:39;36.47;;;21.23;;
37517;SDS011;23366;52.498;13.446;2024-03-02T00:34:05;43.60;;;20.20;;
37517;SDS011;23366;52.498;13.446;2024-03-02T00:36:31;38.83;;;21.65;;
37517;SDS011;23366;52.498;13.446;2024-03-02T00:38:57;50.58;;;24.25;;
37517;SDS011;23366;52.498;13.446;2024-03-02T00:41:24;38.53;;;20.35;;
37517;SDS011;23366;52.498;13.446;2024-03-02T00:44:01;38.50;;;20.95;;
37517;SDS011;23366;52.498;13.446;2024-03-02T00:46:29;38.42;;;19.15;;
37517;SDS011;23366;52.498;13.446;2024-03-02T00:48:57;38.78;;;19.63;;
37517;SDS011;23366;52.498;13.446;2024-03-02T00:51:24;39.97;;;19.27;;
37517;SDS011;23366;52.498;13.446;2024-03-02T00:53:51;41.95;;;21.13;;
37517;SDS011;23366;52.498;13.446;2024-03-02T00:56:20;44.70;;;21.17;;
37517;SDS011;23366;52.498;13.446;2024-03-02T00:58:46;37.30;;;20.05;;
37517;SDS011;23366;52.498;13.446;2024-03-02T01:01:12;49.00;;;22.98;;
37517;SDS011;23366;52.498;13.446;2024-03-02T01:03:38;33.15;;;19.63;;
37517;SDS011;23366;52.498;13.446;2024-03-02T01:06:04;38.95;;;20.75;;
37517;SDS011;23366;52.498;13.446;2024-03-02T01:08:32;43.45;;;23.45;;
37517;SDS011;23366;52.498;13.446;2024-03-02T01:10:58;39.97;;;21.23;;
37517;SDS011;23366;52.498;13.446;2024-03-02T01:13:24;58.85;;;23.90;;
37517;SDS011;23366;52.498;13.446;2024-03-02T01:15:50;42.60;;;22.60;;
37517;SDS011;23366;52.498;13.446;2024-03-02T01:18:16;43.80;;;21.45;;
37517;SDS011;23366;52.498;13.446;2024-03-02T01:20:42;46.85;;;23.20;;
37517;SDS011;23366;52.498;13.446;2024-03-02T01:23:09;38.97;;;20.70;;
37517;SDS011;23366;52.498;13.446;2024-03-02T01:25:35;46.30;;;23.02;;
37517;SDS011;23366;52.498;13.446;2024-03-02T01:28:03;43.65;;;22.70;;
37517;SDS011;23366;52.498;13.446;2024-03-02T01:30:29;46.70;;;24.77;;
37517;SDS011;23366;52.498;13.446;2024-03-02T01:32:55;39.72;;;22.00;;
37517;SDS011;23366;52.498;13.446;2024-03-02T01:35:23;47.47;;;22.35;;
37517;SDS011;23366;52.498;13.446;2024-03-02T01:37:50;45.60;;;24.33;;
37517;SDS011;23366;52.498;13.446;2024-03-02T01:40:16;58.22;;;26.10;;
37517;SDS011;23366;52.498;13.446;2024-03-02T01:42:42;48.35;;;25.00;;
37517;SDS011;23366;52.498;13.446;2024-03-02T01:45:08;57.40;;;27.75;;
37517;SDS011;23366;52.498;13.446;2024-03-02T01:47:35;40.28;;;21.95;;
37517;SDS011;23366;52.498;13.446;2024-03-02T01:50:01;48.88;;;23.88;;
37517;SDS011;23366;52.498;13.446;2024-03-02T01:52:27;43.83;;;21.70;;
37517;SDS011;23366;52.498;13.446;2024-03-02T01:54:54;43.28;;;22.17;;
37517;SDS011;23366;52.498;13.446;2024-03-02T01:57:20;43.10;;;21.52;;
37517;SDS011;23366;52.498;13.446;2024-03-02T01:59:46;42.53;;;22.80;;
37517;SDS011;23366;52.498;13.446;2024-03-02T02:02:13;50.40;;;24.73;;
37517;SDS011;23366;52.498;13.446;2024-03-02T02:04:41;42.58;;;24.30;;
37517;SDS011;23366;52.498;13.446;2024-03-02T02:07:07;49.17;;;24.15;;
37517;SDS011;23366;52.498;13.446;2024-03-02T02:09:34;47.05;;;26.48;;
37517;SDS011;23366;52.498;13.446;2024-03-02T02:12:00;47.72;;;24.25;;
37517;SDS011;23366;52.498;13.446;2024-03-02T02:14:26;51.28;;;24.30;;
37517;SDS011;23366;52.498;13.446;2024-03-02T02:16:52;44.33;;;22.77;;
37517;SDS011;23366;52.498;13.446;2024-03-02T02:19:18;50.60;;;25.02;;
37517;SDS011;23366;52.498;13.446;2024-03-02T02:21:46;60.78;;;29.17;;
37517;SDS011;23366;52.498;13.446;2024-03-02T02:24:12;53.42;;;25.63;;
37517;SDS011;23366;52.498;13.446;2024-03-02T02:26:38;48.40;;;26.17;;
37517;SDS011;23366;52.498;13.446;2024-03-02T02:29:07;47.35;;;24.42;;
37517;SDS011;23366;52.498;13.446;2024-03-02T02:31:39;51.42;;;25.65;;
37517;SDS011;23366;52.498;13.446;2024-03-02T02:34:05;60.88;;;28.40;;
37517;SDS011;23366;52.498;13.446;2024-03-02T02:36:31;47.40;;;23.55;;
37517;SDS011;23366;52.498;13.446;2024-03-02T02:38:58;61.65;;;24.85;;
37517;SDS011;23366;52.498;13.446;2024-03-02T02:41:24;44.05;;;22.73;;
37517;SDS011;23366;52.498;13.446;2024-03-02T02:43:51;50.15;;;23.52;;
37517;SDS011;23366;52.498;13.446;2024-03-02T02:46:17;46.55;;;24.02;;
37517;SDS011;23366;52.498;13.446;2024-03-02T02:48:43;49.08;;;23.05;;
37517;SDS011;23366;52.498;13.446;2024-03-02T02:51:09;52.88;;;27.42;;
37517;SDS011;23366;52.498;13.446;2024-03-02T02:53:35;54.92;;;27.67;;
37517;SDS011;23366;52.498;13.446;2024-03-02T02:56:05;47.03;;;24.33;;
37517;SDS011;23366;52.498;13.446;2024-03-02T02:58:31;51.45;;;23.67;;
37517;SDS011;23366;52.498;13.446;2024-03-02T03:00:57;57.60;;;27.40;;
37517;SDS011;23366;52.498;13.446;2024-03-02T03:03:23;57.95;;;28.95;;
37517;SDS011;23366;52.498;13.446;2024-03-02T03:05:49;52.10;;;28.42;;
37517;SDS011;23366;52.498;13.446;2024-03-02T03:08:15;53.25;;;26.85;;
37517;SDS011;23366;52.498;13.446;2024-03-02T03:10:41;50.88;;;25.50;;
37517;SDS011;23366;52.498;13.446;2024-03-02T03:13:07;47.95;;;25.83;;
37517;SDS011;23366;52.498;13.446;2024-03-02T03:15:37;54.03;;;25.90;;
37517;SDS011;23366;52.498;13.446;2024-03-02T03:18:03;50.65;;;25.58;;
37517;SDS011;23366;52.498;13.446;2024-03-02T03:20:29;52.05;;;25.65;;
37517;SDS011;23366;52.498;13.446;2024-03-02T03:22:56;43.80;;;23.77;;
37517;SDS011;23366;52.498;13.446;2024-03-02T03:25:22;45.00;;;22.98;;
37517;SDS011;23366;52.498;13.446;2024-03-02T03:27:51;53.55;;;23.13;;
37517;SDS011;23366;52.498;13.446;2024-03-02T03:30:17;50.22;;;25.05;;
37517;SDS011;23366;52.498;13.446;2024-03-02T03:32:46;51.53;;;24.63;;
37517;SDS011;23366;52.498;13.446;2024-03-02T03:35:13;50.20;;;24.52;;
37517;SDS011;23366;52.498;13.446;2024-03-02T03:37:41;50.67;;;26.55;;
37517;SDS011;23366;52.498;13.446;2024-03-02T03:40:07;48.00;;;23.65;;
37517;SDS011;23366;52.498;13.446;2024-03-02T03:42:37;45.53;;;23.70;;
37517;SDS011;23366;52.498;13.446;2024-03-02T03:45:03;48.13;;;24.77;;
37517;SDS011;23366;52.498;13.446;2024-03-02T03:47:31;53.30;;;23.73;;
37517;SDS011;23366;52.498;13.446;2024-03-02T03:49:57;41.95;;;22.98;;
37517;SDS011;23366;52.498;13.446;2024-03-02T03:52:23;53.45;;;25.42;;
37517;SDS011;23366;52.498;13.446;2024-03-02T03:54:49;58.00;;;25.42;;
37517;SDS011;23366;52.498;13.446;2024-03-02T03:57:15;39.78;;;21.38;;
37517;SDS011;23366;52.498;13.446;2024-03-02T03:59:41;48.10;;;24.73;;
37517;SDS011;23366;52.498;13.446;2024-03-02T04:02:07;58.80;;;28.17;;
37517;SDS011;23366;52.498;13.446;2024-03-02T04:04:34;46.35;;;22.58;;
37517;SDS011;23366;52.498;13.446;2024-03-02T04:07:00;44.60;;;22.58;;
37517;SDS011;23366;52.498;13.446;2024-03-02T04:09:26;43.45;;;20.48;;
37517;SDS011;23366;52.498;13.446;2024-03-02T04:11:52;41.22;;;22.15;;
37517;SDS011;23366;52.498;13.446;2024-03-02T04:14:19;42.72;;;20.45;;
37517;SDS011;23366;52.498;13.446;2024-03-02T04:16:45;43.78;;;22.48;;
37517;SDS011;23366;52.498;13.446;2024-03-02T04:19:11;37.45;;;18.73;;
37517;SDS011;23366;52.498;13.446;2024-03-02T04:21:37;40.08;;;21.85;;
37517;SDS011;23366;52.498;13.446;2024-03-02T04:24:03;42.33;;;22.25;;
37517;SDS011;23366;52.498;13.446;2024-03-02T04:26:30;41.70;;;21.67;;
37517;SDS011;23366;52.498;13.446;2024-03-02T04:28:56;46.15;;;21.58;;
37517;SDS011;23366;52.498;13.446;2024-03-02T04:31:22;38.47;;;20.20;;
37517;SDS011;23366;52.498;13.446;2024-03-02T04:33:48;41.38;;;20.67;;
37517;SDS011;23366;52.498;13.446;2024-03-02T04:36:14;36.47;;;19.05;;
37517;SDS011;23366;52.498;13.446;2024-03-02T04:38:40;44.35;;;20.02;;
37517;SDS011;23366;52.498;13.446;2024-03-02T04:41:06;38.03;;;20.33;;
37517;SDS011;23366;52.498;13.446;2024-03-02T04:43:33;42.08;;;22.08;;
37517;SDS011;23366;52.498;13.446;2024-03-02T04:45:59;42.08;;;21.63;;
37517;SDS011;23366;52.498;13.446;2024-03-02T04:48:25;43.65;;;22.85;;
37517;SDS011;23366;52.498;13.446;2024-03-02T04:50:51;48.17;;;21.42;;
37517;SDS011;23366;52.498;13.446;2024-03-02T04:53:17;40.10;;;21.35;;
37517;SDS011;23366;52.498;13.446;2024-03-02T04:55:43;41.35;;;20.90;;
37517;SDS011;23366;52.498;13.446;2024-03-02T04:58:09;39.97;;;19.00;;
37517;SDS011;23366;52.498;13.446;2024-03-02T05:00:35;42.88;;;20.83;;
37517;SDS011;23366;52.498;13.446;2024-03-02T05:03:04;40.38;;;21.05;;
37517;SDS011;23366;52.498;13.446;2024-03-02T05:05:30;38.80;;;19.85;;
37517;SDS011;23366;52.498;13.446;2024-03-02T05:07:56;37.35;;;18.58;;
37517;SDS011;23366;52.498;13.446;2024-03-02T05:10:22;37.05;;;18.17;;
37517;SDS011;23366;52.498;13.446;2024-03-02T05:12:47;44.28;;;21.73;;
37517;SDS011;23366;52.498;13.446;2024-03-02T05:15:24;38.80;;;17.35;;
37517;SDS011;23366;52.498;13.446;2024-03-02T05:17:50;35.83;;;21.45;;
37517;SDS011;23366;52.498;13.446;2024-03-02T05:20:18;41.95;;;20.30;;
37517;SDS011;23366;52.498;13.446;2024-03-02T05:22:44;44.55;;;18.45;;
37517;SDS011;23366;52.498;13.446;2024-03-02T05:25:12;39.65;;;20.13;;
37517;SDS011;23366;52.498;13.446;2024-03-02T05:27:40;47.60;;;22.60;;
37517;SDS011;23366;52.498;13.446;2024-03-02T05:30:06;39.88;;;20.00;;
37517;SDS011;23366;52.498;13.446;2024-03-02T05:32:33;30.85;;;16.92;;
37517;SDS011;23366;52.498;13.446;2024-03-02T05:34:59;36.20;;;20.30;;
37517;SDS011;23366;52.498;13.446;2024-03-02T05:37:25;35.08;;;17.10;;
37517;SDS011;23366;52.498;13.446;2024-03-02T05:39:51;28.27;;;15.68;;
37517;SDS011;23366;52.498;13.446;2024-03-02T05:42:19;33.78;;;17.77;;
37517;SDS011;23366;52.498;13.446;2024-03-02T05:44:47;36.17;;;18.40;;
37517;SDS011;23366;52.498;13.446;2024-03-02T05:47:13;33.67;;;18.05;;
37517;SDS011;23366;52.498;13.446;2024-03-02T05:49:39;41.92;;;20.60;;
37517;SDS011;23366;52.498;13.446;2024-03-02T05:52:05;35.20;;;18.67;;
37517;SDS011;23366;52.498;13.446;2024-03-02T05:54:32;40.13;;;20.23;;
37517;SDS011;23366;52.498;13.446;2024-03-02T05:57:00;37.60;;;20.45;;
37517;SDS011;23366;52.498;13.446;2024-03-02T05:59:41;34.25;;;19.77;;
37517;SDS011;23366;52.498;13.446;2024-03-02T06:02:08;36.08;;;18.40;;
37517;SDS011;23366;52.498;13.446;2024-03-02T06:04:34;39.25;;;19.27;;
37517;SDS011;23366;52.498;13.446;2024-03-02T06:07:00;44.75;;;20.50;;
37517;SDS011;23366;52.498;13.446;2024-03-02T06:09:26;42.63;;;19.90;;
37517;SDS011;23366;52.498;13.446;2024-03-02T06:11:52;44.88;;;22.67;;
37517;SDS011;23366;52.498;13.446;2024-03-02T06:14:18;39.13;;;18.52;;
37517;SDS011;23366;52.498;13.446;2024-03-02T06:16:44;48.38;;;22.63;;
37517;SDS011;23366;52.498;13.446;2024-03-02T06:19:10;46.97;;;21.92;;
37517;SDS011;23366;52.498;13.446;2024-03-02T06:21:36;34.95;;;18.92;;
37517;SDS011;23366;52.498;13.446;2024-03-02T06:24:02;43.63;;;19.38;;
37517;SDS011;23366;52.498;13.446;2024-03-02T06:26:28;42.13;;;23.48;;
37517;SDS011;23366;52.498;13.446;2024-03-02T06:28:55;43.45;;;22.02;;
37517;SDS011;23366;52.498;13.446;2024-03-02T06:31:21;43.75;;;22.02;;
37517;SDS011;23366;52.498;13.446;2024-03-02T06:33:47;44.05;;;21.00;;
37517;SDS011;23366;52.498;13.446;2024-03-02T06:36:13;42.08;;;22.73;;
37517;SDS011;23366;52.498;13.446;2024-03-02T06:38:40;40.53;;;22.13;;
37517;SDS011;23366;52.498;13.446;2024-03-02T06:41:06;42.20;;;21.33;;
37517;SDS011;23366;52.498;13.446;2024-03-02T06:43:32;44.92;;;23.38;;
37517;SDS011;23366;52.498;13.446;2024-03-02T06:45:58;43.55;;;23.42;;
37517;SDS011;23366;52.498;13.446;2024-03-02T06:48:24;43.90;;;20.25;;
37517;SDS011;23366;52.498;13.446;2024-03-02T06:50:50;38.60;;;21.27;;
37517;SDS011;23366;52.498;13.446;2024-03-02T06:53:17;51.63;;;22.83;;
37517;SDS011;23366;52.498;13.446;2024-03-02T06:55:44;41.10;;;21.23;;
37517;SDS011;23366;52.498;13.446;2024-03-02T06:58:11;43.17;;;22.98;;
37517;SDS011;23366;52.498;13.446;2024-03-02T07:00:37;45.22;;;23.15;;
37517;SDS011;23366;52.498;13.446;2024-03-02T07:03:03;41.08;;;20.08;;
37517;SDS011;23366;52.498;13.446;2024-03-02T07:05:29;46.20;;;22.48;;
37517;SDS011;23366;52.498;13.446;2024-03-02T07:07:55;52.67;;;22.77;;
37517;SDS011;23366;52.498;13.446;2024-03-02T07:10:21;50.70;;;24.05;;
37517;SDS011;23366;52.498;13.446;2024-03-02T07:12:47;45.63;;;21.95;;
37517;SDS011;23366;52.498;13.446;2024-03-02T07:15:13;36.13;;;20.05;;
37517;SDS011;23366;52.498;13.446;2024-03-02T07:18:10;41.90;;;19.27;;
37517;SDS011;23366;52.498;13.446;2024-03-02T07:20:36;41.65;;;20.92;;
37517;SDS011;23366;52.498;13.446;2024-03-02T07:23:04;37.92;;;21.02;;
37517;SDS011;23366;52.498;13.446;2024-03-02T07:25:30;44.50;;;22.27;;
37517;SDS011;23366;52.498;13.446;2024-03-02T07:27:56;40.10;;;20.27;;
37517;SDS011;23366;52.498;13.446;2024-03-02T07:30:22;44.55;;;22.67;;
37517;SDS011;23366;52.498;13.446;2024-03-02T07:32:50;47.22;;;22.00;;
37517;SDS011;23366;52.498;13.446;2024-03-02T07:35:16;46.25;;;21.63;;
37517;SDS011;23366;52.498;13.446;2024-03-02T07:37:43;37.63;;;19.08;;
37517;SDS011;23366;52.498;13.446;2024-03-02T07:40:09;38.92;;;20.38;;
37517;SDS011;23366;52.498;13.446;2024-03-02T07:42:39;41.67;;;19.67;;
37517;SDS011;23366;52.498;13.446;2024-03-02T07:45:06;36.55;;;21.05;;
37517;SDS011;23366;52.498;13.446;2024-03-02T07:47:34;43.80;;;21.05;;
37517;SDS011;23366;52.498;13.446;2024-03-02T07:50:01;43.60;;;22.33;;
37517;SDS011;23366;52.498;13.446;2024-03-02T07:52:27;41.40;;;20.98;;
37517;SDS011;23366;52.498;13.446;2024-03-02T07:54:54;45.83;;;20.60;;
37517;SDS011;23366;52.498;13.446;2024-03-02T07:57:21;39.72;;;19.70;;
37517;SDS011;23366;52.498;13.446;2024-03-02T07:59:47;47.42;;;19.85;;
37517;SDS011;23366;52.498;13.446;2024-03-02T08:02:12;42.08;;;21.38;;
37517;SDS011;23366;52.498;13.446;2024-03-02T08:04:38;34.17;;;18.92;;
37517;SDS011;23366;52.498;13.446;2024-03-02T08:07:04;39.65;;;20.60;;
37517;SDS011;23366;52.498;13.446;2024-03-02T08:09:30;32.05;;;17.85;;
37517;SDS011;23366;52.498;13.446;2024-03-02T08:11:56;39.38;;;20.02;;
37517;SDS011;23366;52.498;13.446;2024-03-02T08:14:25;37.40;;;18.77;;
37517;SDS011;23366;52.498;13.446;2024-03-02T08:16:51;40.95;;;20.73;;
37517;SDS011;23366;52.498;13.446;2024-03-02T08:19:17;38.60;;;19.65;;
37517;SDS011;23366;52.498;13.446;2024-03-02T08:21:43;39.70;;;19.88;;
37517;SDS011;23366;52.498;13.446;2024-03-02T08:24:09;39.13;;;19.13;;
37517;SDS011;23366;52.498;13.446;2024-03-02T08:26:37;38.92;;;20.70;;
37517;SDS011;23366;52.498;13.446;2024-03-02T08:29:05;37.85;;;18.00;;
37517;SDS011;23366;52.498;13.446;2024-03-02T08:31:32;40.10;;;20.95;;
37517;SDS011;23366;52.498;13.446;2024-03-02T08:33:58;37.05;;;19.50;;
37517;SDS011;23366;52.498;13.446;2024-03-02T08:36:28;33.65;;;18.05;;
37517;SDS011;23366;52.498;13.446;2024-03-02T08:38:55;40.83;;;20.27;;
37517;SDS011;23366;52.498;13.446;2024-03-02T08:41:21;36.65;;;18.58;;
37517;SDS011;23366;52.498;13.446;2024-03-02T08:43:48;38.50;;;19.00;;
37517;SDS011;23366;52.498;13.446;2024-03-02T08:46:14;32.20;;;18.10;;
37517;SDS011;23366;52.498;13.446;2024-03-02T08:48:40;28.17;;;16.67;;
37517;SDS011;23366;52.498;13.446;2024-03-02T08:51:06;30.63;;;17.52;;
37517;SDS011;23366;52.498;13.446;2024-03-02T08:53:35;34.63;;;19.48;;
37517;SDS011;23366;52.498;13.446;2024-03-02T08:56:01;39.67;;;20.95;;
37517;SDS011;23366;52.498;13.446;2024-03-02T08:58:30;39.38;;;18.77;;
37517;SDS011;23366;52.498;13.446;2024-03-02T09:00:58;34.38;;;17.45;;
37517;SDS011;23366;52.498;13.446;2024-03-02T09:03:25;33.92;;;18.77;;
37517;SDS011;23366;52.498;13.446;2024-03-02T09:05:51;38.80;;;19.42;;
37517;SDS011;23366;52.498;13.446;2024-03-02T09:08:17;39.97;;;17.38;;
37517;SDS011;23366;52.498;13.446;2024-03-02T09:10:44;34.97;;;18.63;;
37517;SDS011;23366;52.498;13.446;2024-03-02T09:13:10;37.28;;;17.17;;
37517;SDS011;23366;52.498;13.446;2024-03-02T09:15:36;40.38;;;20.88;;
37517;SDS011;23366;52.498;13.446;2024-03-02T09:18:05;38.22;;;17.40;;
37517;SDS011;23366;52.498;13.446;2024-03-02T09:20:31;31.38;;;16.63;;
37517;SDS011;23366;52.498;13.446;2024-03-02T09:22:57;34.13;;;18.92;;
37517;SDS011;23366;52.498;13.446;2024-03-02T09:25:23;29.38;;;16.42;;
37517;SDS011;23366;52.498;13.446;2024-03-02T09:27:50;37.10;;;20.17;;
37517;SDS011;23366;52.498;13.446;2024-03-02T09:30:19;38.47;;;16.83;;
37517;SDS011;23366;52.498;13.446;2024-03-02T09:32:45;38.92;;;16.63;;
37517;SDS011;23366;52.498;13.446;2024-03-02T09:35:11;37.08;;;17.73;;
37517;SDS011;23366;52.498;13.446;2024-03-02T09:37:37;35.20;;;18.58;;
37517;SDS011;23366;52.498;13.446;2024-03-02T09:40:03;35.13;;;16.65;;
37517;SDS011;23366;52.498;13.446;2024-03-02T09:42:29;29.63;;;16.38;;
37517;SDS011;23366;52.498;13.446;2024-03-02T09:44:55;34.15;;;18.23;;
37517;SDS011;23366;52.498;13.446;2024-03-02T09:47:22;29.50;;;15.95;;
37517;SDS011;23366;52.498;13.446;2024-03-02T09:49:49;40.65;;;18.27;;
37517;SDS011;23366;52.498;13.446;2024-03-02T09:52:16;31.08;;;17.05;;
37517;SDS011;23366;52.498;13.446;2024-03-02T09:54:42;32.92;;;16.02;;
37517;SDS011;23366;52.498;13.446;2024-03-02T09:57:08;29.83;;;15.30;;
37517;SDS011;23366;52.498;13.446;2024-03-02T09:59:34;28.73;;;15.52;;
37517;SDS011;23366;52.498;13.446;2024-03-02T10:02:01;29.08;;;15.25;;
37517;SDS011;23366;52.498;13.446;2024-03-02T10:04:28;32.70;;;14.00;;
37517;SDS011;23366;52.498;13.446;2024-03-02T10:07:10;33.17;;;14.18;;
37517;SDS011;23366;52.498;13.446;2024-03-02T10:09:39;23.80;;;14.52;;
37517;SDS011;23366;52.498;13.446;2024-03-02T10:12:06;25.48;;;12.80;;
37517;SDS011;23366;52.498;13.446;2024-03-02T10:14:33;21.95;;;11.95;;
37517;SDS011;23366;52.498;13.446;2024-03-02T10:17:02;27.38;;;13.18;;
37517;SDS011;23366;52.498;13.446;2024-03-02T10:19:30;25.73;;;14.55;;
37517;SDS011;23366;52.498;13.446;2024-03-02T10:22:00;22.92;;;12.63;;
37517;SDS011;23366;52.498;13.446;2024-03-02T10:24:26;26.38;;;13.43;;
37517;SDS011;23366;52.498;13.446;2024-03-02T10:26:52;26.83;;;14.88;;
37517;SDS011;23366;52.498;13.446;2024-03-02T10:29:19;24.48;;;12.27;;
37517;SDS011;23366;52.498;13.446;2024-03-02T10:31:45;24.50;;;12.93;;
37517;SDS011;23366;52.498;13.446;2024-03-02T10:34:12;22.30;;;12.63;;
37517;SDS011;23366;52.498;13.446;2024-03-02T10:36:41;22.17;;;11.85;;
37517;SDS011;23366;52.498;13.446;2024-03-02T10:39:07;23.08;;;11.32;;
37517;SDS011;23366;52.498;13.446;2024-03-02T10:41:34;21.10;;;12.20;;
37517;SDS011;23366;52.498;13.446;2024-03-02T10:44:03;20.15;;;10.80;;
37517;SDS011;23366;52.498;13.446;2024-03-02T10:46:30;19.80;;;10.82;;
37517;SDS011;23366;52.498;13.446;2024-03-02T10:48:57;22.48;;;12.20;;
37517;SDS011;23366;52.498;13.446;2024-03-02T10:51:27;18.95;;;10.45;;
37517;SDS011;23366;52.498;13.446;2024-03-02T10:53:56;19.98;;;11.23;;
37517;SDS011;23366;52.498;13.446;2024-03-02T10:56:38;22.20;;;11.35;;
37517;SDS011;23366;52.498;13.446;2024-03-02T10:59:17;17.58;;;9.98;;
37517;SDS011;23366;52.498;13.446;2024-03-02T11:01:47;16.40;;;9.98;;
37517;SDS011;23366;52.498;13.446;2024-03-02T11:04:15;20.17;;;9.73;;
37517;SDS011;23366;52.498;13.446;2024-03-02T11:06:43;17.90;;;10.13;;
37517;SDS011;23366;52.498;13.446;2024-03-02T11:09:10;20.70;;;10.65;;
37517;SDS011;23366;52.498;13.446;2024-03-02T11:11:40;17.77;;;10.32;;
37517;SDS011;23366;52.498;13.446;2024-03-02T11:14:07;19.60;;;10.02;;
37517;SDS011;23366;52.498;13.446;2024-03-02T11:16:34;20.95;;;9.32;;
37517;SDS011;23366;52.498;13.446;2024-03-02T11:19:02;17.35;;;9.80;;
37517;SDS011;23366;52.498;13.446;2024-03-02T11:21:29;25.40;;;10.10;;
37517;SDS011;23366;52.498;13.446;2024-03-02T11:23:57;20.42;;;10.15;;
37517;SDS011;23366;52.498;13.446;2024-03-02T11:26:23;19.98;;;10.95;;
37517;SDS011;23366;52.498;13.446;2024-03-02T11:28:50;19.88;;;8.82;;
37517;SDS011;23366;52.498;13.446;2024-03-02T11:31:16;19.00;;;10.00;;
37517;SDS011;23366;52.498;13.446;2024-03-02T11:33:42;21.23;;;11.00;;
37517;SDS011;23366;52.498;13.446;2024-03-02T11:36:09;19.42;;;10.30;;
37517;SDS011;23366;52.498;13.446;2024-03-02T11:38:35;23.70;;;11.27;;
37517;SDS011;23366;52.498;13.446;2024-03-02T11:41:10;21.17;;;11.32;;
37517;SDS011;23366;52.498;13.446;2024-03-02T11:43:37;19.90;;;9.63;;
37517;SDS011;23366;52.498;13.446;2024-03-02T11:46:04;17.20;;;8.85;;
37517;SDS011;23366;52.498;13.446;2024-03-02T11:48:36;18.05;;;10.38;;
37517;SDS011;23366;52.498;13.446;2024-03-02T11:51:02;19.13;;;9.45;;
37517;SDS011;23366;52.498;13.446;2024-03-02T11:53:28;15.98;;;9.45;;
37517;SDS011;23366;52.498;13.446;2024-03-02T11:55:57;16.42;;;8.43;;
37517;SDS011;23366;52.498;13.446;2024-03-02T11:58:24;12.68;;;7.97;;
37517;SDS011;23366;52.498;13.446;2024-03-02T12:00:52;20.55;;;10.48;;
37517;SDS011;23366;52.498;13.446;2024-03-02T12:03:18;13.85;;;7.85;;
37517;SDS011;23366;52.498;13.446;2024-03-02T12:05:47;21.45;;;10.07;;
37517;SDS011;23366;52.498;13.446;2024-03-02T12:08:14;20.15;;;9.63;;
37517;SDS011;23366;52.498;13.446;2024-03-02T12:10:39;19.27;;;10.02;;
37517;SDS011;23366;52.498;13.446;2024-03-02T12:13:06;21.25;;;11.20;;
37517;SDS011;23366;52.498;13.446;2024-03-02T12:15:35;21.10;;;9.23;;
37517;SDS011;23366;52.498;13.446;2024-03-02T12:18:05;17.55;;;9.35;;
37517;SDS011;23366;52.498;13.446;2024-03-02T12:20:32;15.77;;;8.02;;
37517;SDS011;23366;52.498;13.446;2024-03-02T12:22:58;18.67;;;8.57;;
37517;SDS011;23366;52.498;13.446;2024-03-02T12:25:25;20.25;;;9.40;;
37517;SDS011;23366;52.498;13.446;2024-03-02T12:27:55;16.17;;;9.30;;
37517;SDS011;23366;52.498;13.446;2024-03-02T12:30:21;21.83;;;9.02;;
37517;SDS011;23366;52.498;13.446;2024-03-02T12:32:47;14.32;;;8.30;;
37517;SDS011;23366;52.498;13.446;2024-03-02T12:35:14;22.77;;;9.13;;
37517;SDS011;23366;52.498;13.446;2024-03-02T12:37:50;16.17;;;8.38;;
37517;SDS011;23366;52.498;13.446;2024-03-02T12:40:17;16.75;;;8.68;;
37517;SDS011;23366;52.498;13.446;2024-03-02T12:42:43;34.58;;;14.10;;
37517;SDS011;23366;52.498;13.446;2024-03-02T12:45:10;15.68;;;8.55;;
37517;SDS011;23366;52.498;13.446;2024-03-02T12:47:36;20.38;;;8.60;;
37517;SDS011;23366;52.498;13.446;2024-03-02T12:50:03;14.90;;;7.15;;
37517;SDS011;23366;52.498;13.446;2024-03-02T12:52:30;13.60;;;7.68;;
37517;SDS011;23366;52.498;13.446;2024-03-02T12:55:02;16.38;;;8.82;;
37517;SDS011;23366;52.498;13.446;2024-03-02T12:57:29;15.88;;;8.18;;
37517;SDS011;23366;52.498;13.446;2024-03-02T12:59:59;15.02;;;7.40;;
37517;SDS011;23366;52.498;13.446;2024-03-02T13:02:28;14.75;;;8.63;;
37517;SDS011;23366;52.498;13.446;2024-03-02T13:04:54;15.13;;;8.40;;
37517;SDS011;23366;52.498;13.446;2024-03-02T13:07:21;17.50;;;7.97;;
37517;SDS011;23366;52.498;13.446;2024-03-02T13:09:48;12.80;;;7.65;;
37517;SDS011;23366;52.498;13.446;2024-03-02T13:12:15;13.27;;;6.28;;
37517;SDS011;23366;52.498;13.446;2024-03-02T13:14:41;14.15;;;7.00;;
37517;SDS011;23366;52.498;13.446;2024-03-02T13:17:10;20.40;;;9.02;;
37517;SDS011;23366;52.498;13.446;2024-03-02T13:19:39;16.42;;;7.53;;
37517;SDS011;23366;52.498;13.446;2024-03-02T13:22:08;13.52;;;7.07;;
37517;SDS011;23366;52.498;13.446;2024-03-02T13:24:34;14.73;;;8.38;;
37517;SDS011;23366;52.498;13.446;2024-03-02T13:27:01;13.15;;;6.90;;
37517;SDS011;23366;52.498;13.446;2024-03-02T13:29:29;13.80;;;7.35;;
37517;SDS011;23366;52.498;13.446;2024-03-02T13:31:54;15.07;;;8.30;;
37517;SDS011;23366;52.498;13.446;2024-03-02T13:34:22;13.45;;;6.60;;
37517;SDS011;23366;52.498;13.446;2024-03-02T13:36:48;12.38;;;6.50;;
37517;SDS011;23366;52.498;13.446;2024-03-02T13:39:14;14.07;;;7.80;;
37517;SDS011;23366;52.498;13.446;2024-03-02T13:41:40;14.82;;;7.32;;
37517;SDS011;23366;52.498;13.446;2024-03-02T13:44:06;13.55;;;6.13;;
37517;SDS011;23366;52.498;13.446;2024-03-02T13:46:32;12.50;;;7.43;;
37517;SDS011;23366;52.498;13.446;2024-03-02T13:48:58;16.00;;;7.28;;
37517;SDS011;23366;52.498;13.446;2024-03-02T13:51:24;12.13;;;6.55;;
37517;SDS011;23366;52.498;13.446;2024-03-02T13:53:50;17.55;;;8.10;;
37517;SDS011;23366;52.498;13.446;2024-03-02T13:56:16;14.93;;;9.15;;
37517;SDS011;23366;52.498;13.446;2024-03-02T13:58:42;13.82;;;7.35;;
37517;SDS011;23366;52.498;13.446;2024-03-02T14:01:09;15.85;;;8.85;;
37517;SDS011;23366;52.498;13.446;2024-03-02T14:03:35;15.93;;;8.13;;
37517;SDS011;23366;52.498;13.446;2024-03-02T14:06:01;14.25;;;6.97;;
37517;SDS011;23366;52.498;13.446;2024-03-02T14:08:28;11.10;;;6.28;;
37517;SDS011;23366;52.498;13.446;2024-03-02T14:10:54;11.63;;;5.90;;